createdAt,value
2022-12-24T00:01:05.673Z,47.50
2022-12-24T00:03:39.670Z,47.23
2022-12-24T00:06:20.487Z,48.97
2022-12-24T00:08:54.037Z,46.57
2022-12-24T00:11:28.077Z,46.03
2022-12-24T00:13:57.625Z,44.77
2022-12-24T00:16:26.886Z,49.03
2022-12-24T00:18:56.048Z,47.83
2022-12-24T00:21:25.213Z,45.07
2022-12-24T00:23:56.054Z,42.23
2022-12-24T00:26:25.291Z,43.53
2022-12-24T00:28:54.669Z,43.93
2022-12-24T00:31:24.038Z,45.87
2022-12-24T00:33:53.406Z,44.07
2022-12-24T00:36:31.272Z,43.07
2022-12-24T00:39:01.749Z,43.20
2022-12-24T00:41:30.521Z,42.60
2022-12-24T00:44:01.441Z,40.70
2022-12-24T00:46:33.134Z,45.23
2022-12-24T00:49:03.218Z,42.27
2022-12-24T00:51:32.831Z,40.43
2022-12-24T00:54:03.572Z,39.37
2022-12-24T00:56:32.830Z,39.47
2022-12-24T00:59:01.897Z,36.80
2022-12-24T01:01:30.760Z,36.80
2022-12-24T01:04:13.643Z,35.27
2022-12-24T01:06:44.731Z,36.10
2022-12-24T01:09:15.193Z,34.47
2022-12-24T01:11:44.311Z,37.23
2022-12-24T01:14:13.033Z,37.17
2022-12-24T01:16:42.071Z,36.03
2022-12-24T01:19:11.233Z,35.37
2022-12-24T01:21:40.203Z,32.33
2022-12-24T01:24:09.183Z,34.07
2022-12-24T01:26:42.552Z,34.63
2022-12-24T01:29:11.703Z,35.03
2022-12-24T01:31:40.755Z,34.87
2022-12-24T01:34:09.718Z,39.60
2022-12-24T01:36:41.456Z,35.77
2022-12-24T01:39:10.449Z,36.03
2022-12-24T01:41:58.111Z,35.13
2022-12-24T01:44:33.499Z,35.27
2022-12-24T01:47:11.017Z,35.23
2022-12-24T01:49:43.681Z,36.67
2022-12-24T01:52:17.663Z,37.83
2022-12-24T01:54:49.521Z,36.73
2022-12-24T01:57:24.461Z,35.53
2022-12-24T01:59:58.075Z,33.53
2022-12-24T02:02:27.607Z,33.93
2022-12-24T02:05:02.832Z,34.03
2022-12-24T02:07:32.486Z,35.60
2022-12-24T02:10:03.109Z,34.80
2022-12-24T02:12:36.043Z,32.60
2022-12-24T02:15:05.491Z,31.03
2022-12-24T02:17:40.822Z,29.33
2022-12-24T02:20:51.164Z,30.77
2022-12-24T02:24:02.954Z,30.97
2022-12-24T02:26:50.019Z,30.77
2022-12-24T02:29:39.477Z,29.93
2022-12-24T02:32:16.072Z,26.77
2022-12-24T02:34:51.005Z,26.60
2022-12-24T02:37:27.209Z,28.50
2022-12-24T02:40:01.081Z,35.40
2022-12-24T02:42:39.578Z,34.70
2022-12-24T02:45:12.389Z,32.00
2022-12-24T02:47:45.401Z,34.57
2022-12-24T02:50:16.118Z,32.13
2022-12-24T02:52:46.673Z,37.73
2022-12-24T02:55:19.477Z,31.63
2022-12-24T02:58:03.066Z,30.47
2022-12-24T03:00:44.860Z,33.43
2022-12-24T03:03:32.465Z,31.63
2022-12-24T03:06:11.145Z,32.27
2022-12-24T03:08:48.717Z,31.60
2022-12-24T03:11:17.849Z,31.27
2022-12-24T03:13:47.020Z,31.60
2022-12-24T03:16:19.738Z,30.20
2022-12-24T03:18:52.335Z,30.20
2022-12-24T03:21:25.608Z,30.27
2022-12-24T03:23:54.528Z,28.93
2022-12-24T03:26:24.566Z,30.53
2022-12-24T03:28:54.208Z,29.30
2022-12-24T03:31:25.983Z,29.50
2022-12-24T03:33:56.191Z,25.60
2022-12-24T03:36:25.758Z,27.70
2022-12-24T03:38:54.372Z,26.93
2022-12-24T03:41:22.973Z,26.33
2022-12-24T03:43:51.655Z,27.03
2022-12-24T03:46:20.354Z,26.73
2022-12-24T03:48:49.080Z,27.07
2022-12-24T03:51:21.833Z,28.00
2022-12-24T03:53:50.572Z,26.57
2022-12-24T03:56:19.337Z,27.63
2022-12-24T03:58:48.658Z,26.93
2022-12-24T04:01:17.756Z,27.40
2022-12-24T04:03:47.038Z,27.37
2022-12-24T04:06:18.107Z,27.40
2022-12-24T04:08:48.208Z,27.93
2022-12-24T04:11:19.713Z,28.77
2022-12-24T04:13:48.380Z,26.53
2022-12-24T04:16:18.350Z,25.67
2022-12-24T04:18:47.016Z,30.17
2022-12-24T04:21:15.821Z,26.77
2022-12-24T04:23:44.952Z,23.17
2022-12-24T04:26:15.150Z,25.90
2022-12-24T04:28:44.502Z,25.43
2022-12-24T04:31:16.047Z,25.47
2022-12-24T04:33:46.196Z,25.13
2022-12-24T04:36:17.259Z,25.07
2022-12-24T04:38:46.756Z,25.73
2022-12-24T04:41:23.103Z,24.17
2022-12-24T04:43:53.803Z,25.20
2022-12-24T04:46:25.406Z,29.47
2022-12-24T04:48:55.355Z,24.17
2022-12-24T04:51:25.597Z,26.03
2022-12-24T04:53:54.786Z,28.17
2022-12-24T04:56:26.606Z,24.27
2022-12-24T04:58:56.251Z,28.67
2022-12-24T05:01:26.940Z,31.57
2022-12-24T05:03:56.476Z,30.47
2022-12-24T05:06:27.410Z,27.63
2022-12-24T05:08:56.956Z,27.93
2022-12-24T05:11:27.491Z,25.70
2022-12-24T05:13:56.235Z,28.57
2022-12-24T05:16:26.283Z,24.70
2022-12-24T05:18:55.447Z,24.53
2022-12-24T05:21:26.169Z,26.07
2022-12-24T05:24:09.089Z,25.47
2022-12-24T05:26:42.899Z,26.10
2022-12-24T05:29:13.514Z,23.50
2022-12-24T05:31:43.767Z,23.00
2022-12-24T05:34:12.811Z,22.10
2022-12-24T05:36:41.693Z,22.47
2022-12-24T05:39:15.756Z,23.03
2022-12-24T05:41:47.157Z,22.20
2022-12-24T05:44:16.444Z,21.97
2022-12-24T05:46:45.633Z,23.83
2022-12-24T05:49:14.528Z,21.60
2022-12-24T05:51:43.317Z,21.27
2022-12-24T05:54:12.308Z,22.90
2022-12-24T05:56:41.045Z,22.93
2022-12-24T05:59:11.172Z,22.97
2022-12-24T06:01:39.983Z,24.33
2022-12-24T06:04:08.789Z,21.70
2022-12-24T06:06:37.434Z,22.67
2022-12-24T06:09:06.052Z,21.73
2022-12-24T06:11:35.050Z,22.13
2022-12-24T06:14:03.769Z,20.17
2022-12-24T06:16:33.865Z,22.03
2022-12-24T06:19:02.566Z,20.33
2022-12-24T06:21:31.251Z,19.83
2022-12-24T06:23:59.979Z,21.33
2022-12-24T06:26:28.630Z,22.10
2022-12-24T06:28:57.305Z,18.50
2022-12-24T06:31:26.226Z,19.10
2022-12-24T06:33:56.310Z,19.87
2022-12-24T06:36:26.360Z,21.17
2022-12-24T06:38:56.076Z,20.97
2022-12-24T06:41:24.795Z,22.80
2022-12-24T06:43:54.353Z,18.87
2022-12-24T06:46:27.246Z,24.23
2022-12-24T06:48:57.449Z,22.43
2022-12-24T06:51:26.132Z,29.60
2022-12-24T06:53:55.327Z,22.63
2022-12-24T06:56:23.974Z,20.67
2022-12-24T06:58:52.671Z,19.90
2022-12-24T07:01:24.581Z,20.23
2022-12-24T07:03:53.262Z,22.90
2022-12-24T07:06:27.047Z,22.30
2022-12-24T07:08:55.965Z,21.03
2022-12-24T07:11:26.138Z,22.33
2022-12-24T07:13:54.984Z,20.03
2022-12-24T07:16:23.659Z,24.20
2022-12-24T07:18:52.544Z,22.77
2022-12-24T07:21:22.619Z,24.20
2022-12-24T07:23:51.509Z,23.20
2022-12-24T07:26:20.234Z,23.93
2022-12-24T07:28:49.129Z,20.80
2022-12-24T07:31:18.099Z,23.70
2022-12-24T07:33:52.496Z,20.23
2022-12-24T07:36:24.843Z,18.93
2022-12-24T07:38:53.872Z,22.00
2022-12-24T07:41:22.885Z,20.80
2022-12-24T07:43:51.813Z,20.33
2022-12-24T07:46:21.785Z,23.53
2022-12-24T07:49:01.623Z,22.83
2022-12-24T07:51:31.756Z,23.00
2022-12-24T07:54:01.412Z,23.60
2022-12-24T07:56:30.071Z,20.30
2022-12-24T07:58:58.875Z,21.00
2022-12-24T08:01:27.586Z,24.13
2022-12-24T08:03:56.598Z,22.33
2022-12-24T08:06:25.621Z,20.77
2022-12-24T08:08:56.433Z,22.63
2022-12-24T08:11:25.060Z,22.73
2022-12-24T08:13:53.802Z,21.20
2022-12-24T08:16:22.544Z,22.07
2022-12-24T08:18:51.141Z,20.03
2022-12-24T08:21:20.283Z,21.80
2022-12-24T08:23:49.202Z,20.40
2022-12-24T08:26:19.205Z,22.67
2022-12-24T08:28:48.016Z,21.25
2022-12-24T08:31:17.167Z,17.57
2022-12-24T08:33:45.787Z,16.93
2022-12-24T08:36:14.368Z,17.87
2022-12-24T08:38:42.903Z,19.47
2022-12-24T08:41:11.492Z,16.23
2022-12-24T08:43:41.607Z,18.77
2022-12-24T08:46:11.290Z,18.53
2022-12-24T08:48:39.887Z,19.40
2022-12-24T08:51:10.013Z,16.00
2022-12-24T08:53:38.806Z,17.10
2022-12-24T08:56:09.725Z,16.00
2022-12-24T08:58:39.174Z,17.13
2022-12-24T09:01:15.709Z,17.90
2022-12-24T09:03:44.650Z,17.50
2022-12-24T09:06:13.739Z,30.97
2022-12-24T09:08:42.353Z,26.93
2022-12-24T09:11:13.026Z,26.60
2022-12-24T09:13:42.134Z,24.70
2022-12-24T09:16:12.964Z,51.57
2022-12-24T09:18:42.127Z,48.63
2022-12-24T09:21:14.542Z,44.57
2022-12-24T09:23:44.255Z,145.40
2022-12-24T09:26:16.580Z,49.37
2022-12-24T09:28:45.529Z,157.03
2022-12-24T09:31:16.827Z,215.00
2022-12-24T09:33:48.423Z,245.73
2022-12-24T09:36:17.073Z,57.40
2022-12-24T09:38:46.464Z,118.07
2022-12-24T09:41:16.739Z,166.33
2022-12-24T09:43:50.700Z,85.27
2022-12-24T09:46:26.677Z,237.67
2022-12-24T09:48:59.341Z,88.30
2022-12-24T09:51:33.360Z,108.67
2022-12-24T09:54:05.571Z,225.80
2022-12-24T09:56:40.186Z,249.70
2022-12-24T09:59:14.997Z,120.20
2022-12-24T10:01:45.222Z,119.47
2022-12-24T10:04:16.982Z,43.90
2022-12-24T10:06:53.416Z,125.90
2022-12-24T10:09:31.321Z,83.87
2022-12-24T10:12:10.963Z,37.50
2022-12-24T10:14:56.019Z,76.77
2022-12-24T10:17:39.822Z,111.33
2022-12-24T10:20:38.718Z,174.25
2022-12-24T10:23:15.632Z,72.43
2022-12-24T10:25:51.336Z,78.87
2022-12-24T10:28:23.260Z,42.97
2022-12-24T10:30:56.831Z,31.20
2022-12-24T10:33:33.745Z,27.80
2022-12-24T10:36:06.781Z,36.90
2022-12-24T10:38:38.718Z,28.30
2022-12-24T10:41:08.906Z,27.83
2022-12-24T10:43:40.252Z,33.60
2022-12-24T10:46:18.282Z,21.58
2022-12-24T10:48:53.298Z,20.63
2022-12-24T10:51:27.117Z,20.43
2022-12-24T10:54:02.011Z,24.53
2022-12-24T10:56:30.651Z,22.10
2022-12-24T10:58:59.303Z,19.77
2022-12-24T11:01:46.477Z,19.30
2022-12-24T11:04:21.321Z,23.03
2022-12-24T11:07:01.460Z,21.77
2022-12-24T11:09:32.420Z,21.90
2022-12-24T11:12:08.616Z,22.77
2022-12-24T11:14:40.398Z,19.80
2022-12-24T11:17:09.424Z,17.93
2022-12-24T11:19:41.055Z,23.33
2022-12-24T11:22:19.391Z,18.07
2022-12-24T11:24:50.219Z,20.23
2022-12-24T11:27:41.396Z,25.20
2022-12-24T11:30:26.262Z,24.97
2022-12-24T11:33:21.649Z,23.03
2022-12-24T11:36:08.542Z,25.50
2022-12-24T11:38:38.329Z,24.00
2022-12-24T11:41:09.408Z,24.93
2022-12-24T11:43:48.126Z,27.17
2022-12-24T11:46:20.715Z,23.60
2022-12-24T11:48:50.190Z,84.90
2022-12-24T11:51:25.840Z,147.27
2022-12-24T11:54:03.606Z,201.90
2022-12-24T11:56:38.332Z,133.10
2022-12-24T11:59:18.319Z,74.47
2022-12-24T12:01:54.887Z,73.40
2022-12-24T12:04:26.279Z,53.67
2022-12-24T12:07:00.526Z,176.93
2022-12-24T12:09:32.087Z,110.10
2022-12-24T12:12:06.549Z,207.00
2022-12-24T12:14:38.420Z,106.23
2022-12-24T12:17:20.323Z,50.43
2022-12-24T12:19:54.720Z,69.87
2022-12-24T12:22:36.652Z,56.77
2022-12-24T12:25:08.205Z,91.00
2022-12-24T12:27:41.241Z,77.90
2022-12-24T12:30:18.141Z,86.00
2022-12-24T12:32:53.887Z,57.30
2022-12-24T12:35:27.424Z,28.80
2022-12-24T12:38:03.595Z,102.50
2022-12-24T12:40:54.669Z,57.70
2022-12-24T12:43:37.317Z,43.30
2022-12-24T12:46:15.503Z,29.47
2022-12-24T12:49:09.383Z,25.57
2022-12-24T12:51:44.127Z,33.77
2022-12-24T12:54:41.883Z,29.87
2022-12-24T12:57:16.540Z,33.03
2022-12-24T12:59:51.503Z,35.57
2022-12-24T13:02:42.369Z,30.57
2022-12-24T13:05:49.809Z,23.67
2022-12-24T13:08:53.067Z,33.53
2022-12-24T13:11:42.134Z,37.57
2022-12-24T13:14:49.008Z,25.00
2022-12-24T13:17:42.908Z,31.00
2022-12-24T13:20:22.668Z,34.93
2022-12-24T13:22:55.823Z,44.87
2022-12-24T13:25:28.371Z,36.95
2022-12-24T13:28:22.841Z,31.67
2022-12-24T13:30:58.412Z,28.03
2022-12-24T13:33:48.660Z,33.53
2022-12-24T13:36:20.541Z,26.90
2022-12-24T13:38:50.153Z,27.50
2022-12-24T13:41:57.746Z,29.73
2022-12-24T13:44:37.124Z,32.57
2022-12-24T13:47:32.029Z,27.93
2022-12-24T13:50:22.765Z,33.90
2022-12-24T13:52:54.610Z,34.83
2022-12-24T13:55:24.422Z,41.30
2022-12-24T13:57:59.621Z,29.43
2022-12-24T14:00:39.470Z,33.17
2022-12-24T14:03:24.509Z,37.73
2022-12-24T14:05:56.841Z,32.07
2022-12-24T14:08:36.881Z,34.13
2022-12-24T14:11:10.320Z,35.87
2022-12-24T14:14:13.373Z,36.47
2022-12-24T14:16:52.638Z,39.10
2022-12-24T14:19:24.202Z,39.63
2022-12-24T14:22:00.850Z,39.17
2022-12-24T14:24:35.620Z,41.13
2022-12-24T14:27:16.254Z,40.47
2022-12-24T14:29:55.317Z,39.33
2022-12-24T14:32:25.390Z,41.87
2022-12-24T14:35:08.381Z,46.23
2022-12-24T14:37:37.361Z,42.23
2022-12-24T14:40:07.992Z,38.47
2022-12-24T14:42:43.501Z,36.57
2022-12-24T14:45:26.657Z,37.20
2022-12-24T14:48:05.822Z,36.87
2022-12-24T14:51:08.340Z,37.23
2022-12-24T14:54:06.023Z,31.57
2022-12-24T14:56:34.781Z,31.07
2022-12-24T14:59:16.914Z,31.97
2022-12-24T15:01:46.457Z,31.03
2022-12-24T15:04:19.519Z,33.00
2022-12-24T15:06:50.820Z,32.53
2022-12-24T15:09:21.650Z,34.77
2022-12-24T15:11:53.067Z,36.07
2022-12-24T15:14:23.256Z,40.00
2022-12-24T15:16:57.648Z,38.20
2022-12-24T15:19:30.482Z,38.57
2022-12-24T15:21:59.345Z,39.10
2022-12-24T15:24:32.507Z,41.20
2022-12-24T15:27:03.243Z,42.43
2022-12-24T15:29:33.524Z,41.27
2022-12-24T15:32:05.046Z,45.27
2022-12-24T15:34:40.186Z,37.53
2022-12-24T15:37:14.163Z,36.60
2022-12-24T15:39:43.457Z,39.10
2022-12-24T15:42:18.798Z,38.23
2022-12-24T15:44:58.561Z,36.70
2022-12-24T15:47:30.861Z,38.87
2022-12-24T15:50:00.985Z,36.37
2022-12-24T15:52:30.140Z,37.40
2022-12-24T15:54:58.972Z,37.13
2022-12-24T15:57:33.053Z,38.40
2022-12-24T16:00:05.555Z,41.77
2022-12-24T16:02:40.434Z,38.37
2022-12-24T16:05:34.676Z,41.53
2022-12-24T16:08:33.982Z,40.13
2022-12-24T16:11:13.089Z,38.77
2022-12-24T16:13:44.409Z,43.33
2022-12-24T16:16:15.593Z,40.60
2022-12-24T16:18:53.047Z,41.43
2022-12-24T16:21:27.122Z,40.17
2022-12-24T16:23:57.819Z,38.25
2022-12-24T16:26:29.508Z,38.92
2022-12-24T16:28:58.270Z,42.35
2022-12-24T16:31:32.411Z,34.77
2022-12-24T16:34:02.533Z,34.77
2022-12-24T16:36:33.684Z,36.40
2022-12-24T16:39:20.082Z,39.87
2022-12-24T16:42:06.409Z,41.53
2022-12-24T16:44:35.017Z,41.83
2022-12-24T16:47:03.680Z,43.33
2022-12-24T16:49:32.380Z,41.30
2022-12-24T16:52:02.529Z,41.20
2022-12-24T16:54:31.189Z,43.30
2022-12-24T16:56:59.905Z,43.30
2022-12-24T16:59:28.535Z,44.43
2022-12-24T17:01:59.242Z,42.00
2022-12-24T17:04:27.978Z,44.27
2022-12-24T17:06:56.642Z,43.13
2022-12-24T17:09:28.033Z,42.67
2022-12-24T17:11:59.016Z,39.63
2022-12-24T17:14:27.888Z,45.37
2022-12-24T17:16:56.782Z,39.20
2022-12-24T17:19:25.355Z,40.23
2022-12-24T17:21:55.251Z,40.63
2022-12-24T17:24:23.881Z,37.83
2022-12-24T17:26:54.168Z,39.73
2022-12-24T17:29:22.916Z,45.53
2022-12-24T17:31:51.672Z,42.70
2022-12-24T17:34:20.415Z,40.92
2022-12-24T17:36:49.076Z,33.77
2022-12-24T17:39:22.374Z,32.80
2022-12-24T17:41:58.152Z,40.77
2022-12-24T17:44:26.795Z,38.43
2022-12-24T17:46:55.711Z,37.87
2022-12-24T17:49:24.561Z,40.03
2022-12-24T17:51:53.235Z,32.47
2022-12-24T17:54:21.993Z,34.43
2022-12-24T17:56:50.567Z,36.17
2022-12-24T17:59:20.584Z,29.75
2022-12-24T18:01:49.244Z,28.03
2022-12-24T18:04:18.051Z,30.07
2022-12-24T18:06:49.652Z,32.80
2022-12-24T18:09:18.750Z,34.90
2022-12-24T18:11:47.345Z,36.67
2022-12-24T18:14:15.991Z,39.00
2022-12-24T18:16:46.311Z,37.50
2022-12-24T18:19:14.978Z,39.03
2022-12-24T18:21:43.527Z,39.23
2022-12-24T18:24:13.381Z,37.03
2022-12-24T18:26:42.219Z,34.10
2022-12-24T18:29:11.417Z,32.03
2022-12-24T18:31:40.501Z,34.27
2022-12-24T18:34:14.519Z,38.50
2022-12-24T18:36:43.332Z,38.73
2022-12-24T18:39:11.948Z,36.58
2022-12-24T18:41:40.845Z,35.73
2022-12-24T18:44:10.894Z,32.63
2022-12-24T18:46:39.531Z,33.90
2022-12-24T18:49:11.815Z,36.20
2022-12-24T18:51:40.396Z,36.97
2022-12-24T18:54:09.025Z,37.37
2022-12-24T18:56:37.595Z,36.33
2022-12-24T18:59:06.355Z,38.97
2022-12-24T19:01:36.500Z,40.00
2022-12-24T19:04:05.286Z,39.73
2022-12-24T19:06:35.400Z,40.40
2022-12-24T19:09:04.680Z,38.90
2022-12-24T19:11:34.530Z,38.17
2022-12-24T19:14:04.425Z,44.57
2022-12-24T19:16:36.339Z,43.20
2022-12-24T19:19:06.521Z,44.30
2022-12-24T19:21:37.379Z,42.77
2022-12-24T19:24:07.761Z,41.90
2022-12-24T19:26:36.424Z,43.77
2022-12-24T19:29:05.066Z,42.90
2022-12-24T19:31:33.759Z,41.53
2022-12-24T19:34:02.507Z,35.27
2022-12-24T19:36:32.040Z,38.23
2022-12-24T19:39:04.939Z,37.33
2022-12-24T19:41:33.792Z,34.77
2022-12-24T19:44:03.246Z,34.97
2022-12-24T19:46:33.858Z,34.00
2022-12-24T19:49:05.322Z,34.23
2022-12-24T19:51:34.586Z,37.50
2022-12-24T19:54:06.407Z,35.47
2022-12-24T19:56:35.267Z,35.47
2022-12-24T19:59:04.387Z,34.80
2022-12-24T20:01:34.205Z,34.53
2022-12-24T20:04:03.667Z,33.53
2022-12-24T20:06:34.315Z,33.03
2022-12-24T20:09:06.961Z,33.13
2022-12-24T20:11:36.609Z,31.92
2022-12-24T20:14:07.546Z,32.40
2022-12-24T20:16:37.012Z,33.77
2022-12-24T20:19:07.400Z,33.37
2022-12-24T20:21:36.069Z,35.25
2022-12-24T20:24:06.856Z,28.73
2022-12-24T20:26:35.758Z,26.07
2022-12-24T20:29:05.830Z,29.00
2022-12-24T20:31:35.088Z,34.47
2022-12-24T20:34:05.490Z,30.47
2022-12-24T20:36:34.307Z,32.67
2022-12-24T20:39:03.202Z,31.90
2022-12-24T20:41:35.431Z,31.27
2022-12-24T20:44:04.802Z,32.33
2022-12-24T20:46:33.975Z,36.23
2022-12-24T20:49:02.804Z,36.20
2022-12-24T20:51:33.005Z,35.37
2022-12-24T20:54:02.371Z,35.30
2022-12-24T20:56:32.950Z,34.87
2022-12-24T20:59:02.833Z,31.67
2022-12-24T21:01:34.904Z,32.80
2022-12-24T21:04:08.354Z,32.97
2022-12-24T21:06:38.357Z,32.87
2022-12-24T21:09:10.080Z,37.93
2022-12-24T21:11:59.976Z,39.77
2022-12-24T21:14:29.074Z,46.23
2022-12-24T21:16:57.720Z,33.87
2022-12-24T21:19:27.140Z,37.03
2022-12-24T21:21:56.245Z,45.00
2022-12-24T21:24:24.923Z,55.53
2022-12-24T21:26:54.832Z,43.13
2022-12-24T21:29:23.463Z,35.27
2022-12-24T21:31:52.130Z,41.63
2022-12-24T21:34:20.771Z,34.60
2022-12-24T21:36:49.385Z,37.20
2022-12-24T21:39:17.996Z,50.20
2022-12-24T21:41:46.619Z,46.10
2022-12-24T21:44:30.145Z,48.70
2022-12-24T21:47:04.349Z,36.27
2022-12-24T21:49:51.687Z,40.40
2022-12-24T21:52:20.438Z,37.27
2022-12-24T21:54:53.606Z,35.03
2022-12-24T21:57:40.072Z,31.30
2022-12-24T22:00:24.691Z,35.90
2022-12-24T22:02:56.134Z,33.33
2022-12-24T22:05:26.291Z,35.43
2022-12-24T22:08:12.929Z,34.60
2022-12-24T22:10:59.154Z,33.10
2022-12-24T22:13:28.806Z,34.67
2022-12-24T22:15:59.201Z,32.73
2022-12-24T22:18:28.243Z,35.60
2022-12-24T22:20:57.469Z,36.73
2022-12-24T22:23:26.193Z,40.83
2022-12-24T22:25:55.018Z,40.57
2022-12-24T22:28:23.689Z,35.10
2022-12-24T22:30:52.630Z,35.30
2022-12-24T22:33:22.893Z,26.67
2022-12-24T22:35:51.916Z,27.85
2022-12-24T22:38:20.652Z,32.08
2022-12-24T22:40:49.688Z,30.37
2022-12-24T22:43:18.240Z,29.40
2022-12-24T22:45:46.899Z,26.70
2022-12-24T22:48:16.168Z,27.33
2022-12-24T22:50:46.246Z,32.30
2022-12-24T22:53:14.779Z,36.37
2022-12-24T22:55:43.517Z,37.77
2022-12-24T22:58:12.059Z,37.40
2022-12-24T23:00:43.470Z,29.73
2022-12-24T23:03:13.047Z,28.70
2022-12-24T23:05:41.901Z,28.30
2022-12-24T23:08:13.317Z,28.77
2022-12-24T23:10:42.469Z,28.27
2022-12-24T23:13:31.430Z,25.53
2022-12-24T23:16:03.602Z,28.10
2022-12-24T23:18:32.628Z,25.17
2022-12-24T23:21:05.536Z,28.65
2022-12-24T23:23:37.426Z,28.17
2022-12-24T23:26:07.213Z,24.00
2022-12-24T23:28:35.782Z,25.00
2022-12-24T23:31:05.438Z,23.60
2022-12-24T23:33:34.394Z,26.17
2022-12-24T23:36:03.625Z,25.43
2022-12-24T23:38:32.384Z,26.53
2022-12-24T23:41:05.181Z,26.37
2022-12-24T23:43:34.915Z,26.67
2022-12-24T23:46:03.991Z,27.93
2022-12-24T23:48:32.696Z,25.47
2022-12-24T23:51:09.022Z,28.47
2022-12-24T23:53:37.761Z,26.87
2022-12-24T23:56:11.101Z,25.90
2022-12-24T23:58:41.079Z,24.87
